sensor_id;sensor_type;location;lat;lon;timestamp;pressure;altitude;pressure_sealevel;temperature
45393;BMP280;31129;44.810;10.334;2023-06-01T00:01:55;100920.00;;;20.58
45393;BMP280;31129;44.810;10.334;2023-06-01T00:04:20;100921.94;;;20.37
45393;BMP280;31129;44.810;10.334;2023-06-01T00:06:49;100924.50;;;20.35
45393;BMP280;31129;44.810;10.334;2023-06-01T00:09:15;100923.44;;;20.38
45393;BMP280;31129;44.810;10.334;2023-06-01T00:11:40;100924.69;;;20.24
45393;BMP280;31129;44.810;10.334;2023-06-01T00:14:06;100918.97;;;20.35
45393;BMP280;31129;44.810;10.334;2023-06-01T00:16:32;100916.28;;;20.42
45393;BMP280;31129;44.810;10.334;2023-06-01T00:18:58;100914.91;;;20.49
45393;BMP280;31129;44.810;10.334;2023-06-01T00:21:26;100920.56;;;20.43
45393;BMP280;31129;44.810;10.334;2023-06-01T00:23:52;100918.72;;;20.46
45393;BMP280;31129;44.810;10.334;2023-06-01T00:26:17;100921.94;;;20.37
45393;BMP280;31129;44.810;10.334;2023-06-01T00:28:47;100925.03;;;20.33
45393;BMP280;31129;44.810;10.334;2023-06-01T00:31:13;100929.69;;;20.12
45393;BMP280;31129;44.810;10.334;2023-06-01T00:33:38;100936.41;;;20.17
45393;BMP280;31129;44.810;10.334;2023-06-01T00:36:04;100928.88;;;20.17
45393;BMP280;31129;44.810;10.334;2023-06-01T00:38:29;100927.16;;;20.40
45393;BMP280;31129;44.810;10.334;2023-06-01T00:40:55;100929.72;;;20.25
45393;BMP280;31129;44.810;10.334;2023-06-01T00:43:20;100922.91;;;20.39
45393;BMP280;31129;44.810;10.334;2023-06-01T00:45:46;100918.66;;;20.51
45393;BMP280;31129;44.810;10.334;2023-06-01T00:48:13;100925.88;;;20.54
45393;BMP280;31129;44.810;10.334;2023-06-01T00:50:39;100909.03;;;20.66
45393;BMP280;31129;44.810;10.334;2023-06-01T00:53:12;100917.47;;;20.34
45393;BMP280;31129;44.810;10.334;2023-06-01T00:55:41;100913.59;;;20.24
45393;BMP280;31129;44.810;10.334;2023-06-01T00:58:06;100910.53;;;20.27
45393;BMP280;31129;44.810;10.334;2023-06-01T01:00:32;100908.91;;;20.32
45393;BMP280;31129;44.810;10.334;2023-06-01T01:02:58;100901.13;;;20.30
45393;BMP280;31129;44.810;10.334;2023-06-01T01:05:25;100905.59;;;20.20
45393;BMP280;31129;44.810;10.334;2023-06-01T01:11:07;100903.78;;;20.09
45393;BMP280;31129;44.810;10.334;2023-06-01T01:14:08;100899.72;;;20.10
45393;BMP280;31129;44.810;10.334;2023-06-01T01:16:38;100903.09;;;19.90
45393;BMP280;31129;44.810;10.334;2023-06-01T01:19:34;100901.28;;;19.80
45393;BMP280;31129;44.810;10.334;2023-06-01T01:29:59;100904.38;;;19.89
45393;BMP280;31129;44.810;10.334;2023-06-01T01:32:31;100901.16;;;19.85
45393;BMP280;31129;44.810;10.334;2023-06-01T01:34:57;100902.97;;;19.83
45393;BMP280;31129;44.810;10.334;2023-06-01T01:37:23;100900.28;;;19.77
45393;BMP280;31129;44.810;10.334;2023-06-01T01:39:49;100902.66;;;19.54
45393;BMP280;31129;44.810;10.334;2023-06-01T01:42:14;100896.09;;;19.57
45393;BMP280;31129;44.810;10.334;2023-06-01T01:44:40;100902.81;;;19.62
45393;BMP280;31129;44.810;10.334;2023-06-01T01:47:21;100895.84;;;19.55
45393;BMP280;31129;44.810;10.334;2023-06-01T01:49:54;100897.72;;;19.66
45393;BMP280;31129;44.810;10.334;2023-06-01T01:52:25;100897.91;;;19.68
45393;BMP280;31129;44.810;10.334;2023-06-01T01:54:52;100898.16;;;19.51
45393;BMP280;31129;44.810;10.334;2023-06-01T01:57:18;100897.41;;;19.51
45393;BMP280;31129;44.810;10.334;2023-06-01T01:59:46;100893.75;;;19.61
45393;BMP280;31129;44.810;10.334;2023-06-01T02:02:12;100894.88;;;19.53
45393;BMP280;31129;44.810;10.334;2023-06-01T02:04:42;100896.72;;;19.63
45393;BMP280;31129;44.810;10.334;2023-06-01T02:07:08;100894.13;;;19.52
45393;BMP280;31129;44.810;10.334;2023-06-01T02:09:34;100895.38;;;19.70
45393;BMP280;31129;44.810;10.334;2023-06-01T02:12:00;100893.66;;;19.67
45393;BMP280;31129;44.810;10.334;2023-06-01T02:14:28;100887.25;;;19.59
45393;BMP280;31129;44.810;10.334;2023-06-01T02:16:55;100883.44;;;19.62
45393;BMP280;31129;44.810;10.334;2023-06-01T02:19:21;100890.91;;;19.67
45393;BMP280;31129;44.810;10.334;2023-06-01T02:21:47;100882.59;;;19.67
45393;BMP280;31129;44.810;10.334;2023-06-01T02:24:13;100889.78;;;19.76
45393;BMP280;31129;44.810;10.334;2023-06-01T02:26:41;100885.03;;;19.57
45393;BMP280;31129;44.810;10.334;2023-06-01T02:29:07;100876.66;;;19.44
45393;BMP280;31129;44.810;10.334;2023-06-01T02:31:33;100876.34;;;19.48
45393;BMP280;31129;44.810;10.334;2023-06-01T02:33:59;100881.97;;;19.42
45393;BMP280;31129;44.810;10.334;2023-06-01T02:36:27;100875.44;;;19.40
45393;BMP280;31129;44.810;10.334;2023-06-01T02:38:55;100883.47;;;19.43
45393;BMP280;31129;44.810;10.334;2023-06-01T02:41:21;100880.81;;;19.51
45393;BMP280;31129;44.810;10.334;2023-06-01T02:43:47;100878.69;;;19.44
45393;BMP280;31129;44.810;10.334;2023-06-01T02:46:13;100877.09;;;19.48
45393;BMP280;31129;44.810;10.334;2023-06-01T02:48:45;100867.81;;;19.46
45393;BMP280;31129;44.810;10.334;2023-06-01T02:51:11;100867.91;;;19.40
45393;BMP280;31129;44.810;10.334;2023-06-01T02:53:41;100865.28;;;19.48
45393;BMP280;31129;44.810;10.334;2023-06-01T02:56:09;100865.03;;;19.46
45393;BMP280;31129;44.810;10.334;2023-06-01T02:58:43;100872.41;;;19.43
45393;BMP280;31129;44.810;10.334;2023-06-01T03:01:20;100866.09;;;19.43
45393;BMP280;31129;44.810;10.334;2023-06-01T03:03:47;100865.66;;;19.39
45393;BMP280;31129;44.810;10.334;2023-06-01T03:06:12;100864.03;;;19.30
45393;BMP280;31129;44.810;10.334;2023-06-01T03:09:13;100859.06;;;19.42
45393;BMP280;31129;44.810;10.334;2023-06-01T03:11:52;100858.59;;;19.38
45393;BMP280;31129;44.810;10.334;2023-06-01T03:14:17;100864.97;;;19.32
45393;BMP280;31129;44.810;10.334;2023-06-01T03:16:44;100859.56;;;19.27
45393;BMP280;31129;44.810;10.334;2023-06-01T03:19:15;100869.75;;;19.32
45393;BMP280;31129;44.810;10.334;2023-06-01T03:21:42;100875.41;;;19.26
45393;BMP280;31129;44.810;10.334;2023-06-01T03:24:07;100865.34;;;19.42
45393;BMP280;31129;44.810;10.334;2023-06-01T03:26:33;100871.13;;;19.44
45393;BMP280;31129;44.810;10.334;2023-06-01T03:28:59;100876.81;;;19.33
45393;BMP280;31129;44.810;10.334;2023-06-01T03:31:29;100870.72;;;19.53
45393;BMP280;31129;44.810;10.334;2023-06-01T03:33:55;100879.84;;;19.48
45393;BMP280;31129;44.810;10.334;2023-06-01T03:36:21;100880.06;;;19.50
45393;BMP280;31129;44.810;10.334;2023-06-01T03:38:47;100879.78;;;19.35
45393;BMP280;31129;44.810;10.334;2023-06-01T03:41:13;100881.84;;;19.16
45393;BMP280;31129;44.810;10.334;2023-06-01T03:43:38;100877.56;;;19.15
45393;BMP280;31129;44.810;10.334;2023-06-01T03:46:04;100885.19;;;19.27
45393;BMP280;31129;44.810;10.334;2023-06-01T03:48:30;100883.44;;;19.24
45393;BMP280;31129;44.810;10.334;2023-06-01T03:50:55;100881.38;;;19.30
45393;BMP280;31129;44.810;10.334;2023-06-01T03:53:21;100884.66;;;19.29
45393;BMP280;31129;44.810;10.334;2023-06-01T03:55:47;100890.81;;;19.22
45393;BMP280;31129;44.810;10.334;2023-06-01T03:58:28;100886.31;;;19.00
45393;BMP280;31129;44.810;10.334;2023-06-01T04:00:54;100887.81;;;19.20
45393;BMP280;31129;44.810;10.334;2023-06-01T04:03:20;100885.34;;;19.16
45393;BMP280;31129;44.810;10.334;2023-06-01T04:05:47;100895.66;;;19.16
45393;BMP280;31129;44.810;10.334;2023-06-01T04:08:15;100895.16;;;19.17
45393;BMP280;31129;44.810;10.334;2023-06-01T04:10:41;100891.81;;;19.38
45393;BMP280;31129;44.810;10.334;2023-06-01T04:13:06;100893.84;;;19.37
45393;BMP280;31129;44.810;10.334;2023-06-01T04:15:32;100886.69;;;19.28
45393;BMP280;31129;44.810;10.334;2023-06-01T04:17:59;100881.88;;;19.48
45393;BMP280;31129;44.810;10.334;2023-06-01T04:20:25;100876.19;;;19.40
45393;BMP280;31129;44.810;10.334;2023-06-01T04:22:51;100883.47;;;19.43
45393;BMP280;31129;44.810;10.334;2023-06-01T04:25:17;100883.00;;;19.39
45393;BMP280;31129;44.810;10.334;2023-06-01T04:27:45;100888.19;;;19.29
45393;BMP280;31129;44.810;10.334;2023-06-01T04:30:12;100880.00;;;19.37
45393;BMP280;31129;44.810;10.334;2023-06-01T04:32:39;100879.50;;;19.20
45393;BMP280;31129;44.810;10.334;2023-06-01T04:35:06;100874.88;;;19.28
45393;BMP280;31129;44.810;10.334;2023-06-01T04:37:33;100878.00;;;19.19
45393;BMP280;31129;44.810;10.334;2023-06-01T04:40:03;100887.81;;;19.01
45393;BMP280;31129;44.810;10.334;2023-06-01T04:42:38;100885.19;;;18.90
45393;BMP280;31129;44.810;10.334;2023-06-01T04:45:08;100881.53;;;19.01
45393;BMP280;31129;44.810;10.334;2023-06-01T04:47:35;100885.56;;;19.00
45393;BMP280;31129;44.810;10.334;2023-06-01T04:50:16;100887.88;;;19.14
45393;BMP280;31129;44.810;10.334;2023-06-01T04:52:43;100884.00;;;19.23
45393;BMP280;31129;44.810;10.334;2023-06-01T04:55:10;100877.88;;;19.30
45393;BMP280;31129;44.810;10.334;2023-06-01T04:57:38;100882.25;;;19.39
45393;BMP280;31129;44.810;10.334;2023-06-01T05:00:06;100880.59;;;19.49
45393;BMP280;31129;44.810;10.334;2023-06-01T05:02:42;100881.13;;;19.47
45393;BMP280;31129;44.810;10.334;2023-06-01T05:05:12;100891.38;;;19.52
45393;BMP280;31129;44.810;10.334;2023-06-01T05:07:39;100887.03;;;19.57
45393;BMP280;31129;44.810;10.334;2023-06-01T05:10:09;100882.44;;;19.59
45393;BMP280;31129;44.810;10.334;2023-06-01T05:12:42;100888.13;;;19.67
45393;BMP280;31129;44.810;10.334;2023-06-01T05:15:08;100884.69;;;19.61
45393;BMP280;31129;44.810;10.334;2023-06-01T05:17:35;100892.81;;;19.72
45393;BMP280;31129;44.810;10.334;2023-06-01T05:20:05;100895.78;;;19.61
45393;BMP280;31129;44.810;10.334;2023-06-01T05:22:30;100897.75;;;19.79
45393;BMP280;31129;44.810;10.334;2023-06-01T05:24:56;100899.13;;;19.72
45393;BMP280;31129;44.810;10.334;2023-06-01T05:27:22;100892.84;;;19.85
45393;BMP280;31129;44.810;10.334;2023-06-01T05:29:48;100898.41;;;19.98
45393;BMP280;31129;44.810;10.334;2023-06-01T05:32:13;100896.31;;;20.04
45393;BMP280;31129;44.810;10.334;2023-06-01T05:34:39;100893.97;;;20.08
45393;BMP280;31129;44.810;10.334;2023-06-01T05:37:04;100899.19;;;20.12
45393;BMP280;31129;44.810;10.334;2023-06-01T05:39:30;100895.06;;;20.05
45393;BMP280;31129;44.810;10.334;2023-06-01T05:41:56;100884.59;;;20.11
45393;BMP280;31129;44.810;10.334;2023-06-01T05:44:23;100895.50;;;20.23
45393;BMP280;31129;44.810;10.334;2023-06-01T05:46:49;100891.72;;;20.07
45393;BMP280;31129;44.810;10.334;2023-06-01T05:49:16;100898.88;;;20.29
45393;BMP280;31129;44.810;10.334;2023-06-01T05:51:42;100892.72;;;20.23
45393;BMP280;31129;44.810;10.334;2023-06-01T05:54:09;100900.16;;;20.28
45393;BMP280;31129;44.810;10.334;2023-06-01T05:56:35;100896.34;;;20.31
45393;BMP280;31129;44.810;10.334;2023-06-01T05:59:02;100892.41;;;20.39
45393;BMP280;31129;44.810;10.334;2023-06-01T06:01:29;100901.78;;;20.49
45393;BMP280;31129;44.810;10.334;2023-06-01T06:03:55;100902.44;;;20.55
45393;BMP280;31129;44.810;10.334;2023-06-01T06:06:21;100905.38;;;20.44
45393;BMP280;31129;44.810;10.334;2023-06-01T06:08:47;100902.19;;;20.53
45393;BMP280;31129;44.810;10.334;2023-06-01T06:11:13;100901.78;;;20.63
45393;BMP280;31129;44.810;10.334;2023-06-01T06:13:38;100896.47;;;20.78
45393;BMP280;31129;44.810;10.334;2023-06-01T06:16:04;100890.44;;;20.74
45393;BMP280;31129;44.810;10.334;2023-06-01T06:18:29;100892.13;;;20.90
45393;BMP280;31129;44.810;10.334;2023-06-01T06:20:55;100898.97;;;20.89
45393;BMP280;31129;44.810;10.334;2023-06-01T06:23:21;100897.47;;;20.75
45393;BMP280;31129;44.810;10.334;2023-06-01T06:25:46;100896.38;;;20.91
45393;BMP280;31129;44.810;10.334;2023-06-01T06:28:13;100902.03;;;20.98
45393;BMP280;31129;44.810;10.334;2023-06-01T06:30:39;100897.41;;;21.14
45393;BMP280;31129;44.810;10.334;2023-06-01T06:33:04;100908.22;;;21.38
45393;BMP280;31129;44.810;10.334;2023-06-01T06:35:30;100906.22;;;21.39
45393;BMP280;31129;44.810;10.334;2023-06-01T06:37:55;100901.09;;;21.30
45393;BMP280;31129;44.810;10.334;2023-06-01T06:40:21;100900.88;;;21.28
45393;BMP280;31129;44.810;10.334;2023-06-01T06:42:46;100898.91;;;21.36
45393;BMP280;31129;44.810;10.334;2023-06-01T06:45:12;100889.72;;;21.62
45393;BMP280;31129;44.810;10.334;2023-06-01T06:47:38;100903.00;;;21.76
45393;BMP280;31129;44.810;10.334;2023-06-01T06:50:04;100896.91;;;21.78
45393;BMP280;31129;44.810;10.334;2023-06-01T06:52:29;100894.72;;;21.84
45393;BMP280;31129;44.810;10.334;2023-06-01T06:54:56;100898.16;;;21.98
45393;BMP280;31129;44.810;10.334;2023-06-01T06:57:22;100903.16;;;21.99
45393;BMP280;31129;44.810;10.334;2023-06-01T06:59:47;100894.56;;;22.10
45393;BMP280;31129;44.810;10.334;2023-06-01T07:02:13;100897.53;;;22.12
45393;BMP280;31129;44.810;10.334;2023-06-01T07:04:39;100899.25;;;22.23
45393;BMP280;31129;44.810;10.334;2023-06-01T07:07:05;100905.00;;;22.17
45393;BMP280;31129;44.810;10.334;2023-06-01T07:09:31;100901.78;;;22.13
45393;BMP280;31129;44.810;10.334;2023-06-01T07:11:56;100906.59;;;22.13
45393;BMP280;31129;44.810;10.334;2023-06-01T07:14:22;100893.91;;;22.25
45393;BMP280;31129;44.810;10.334;2023-06-01T07:16:47;100906.09;;;22.58
45393;BMP280;31129;44.810;10.334;2023-06-01T07:19:13;100906.53;;;22.62
45393;BMP280;31129;44.810;10.334;2023-06-01T07:21:38;100894.31;;;22.73
45393;BMP280;31129;44.810;10.334;2023-06-01T07:24:04;100905.47;;;22.88
45393;BMP280;31129;44.810;10.334;2023-06-01T07:26:33;100902.25;;;22.61
45393;BMP280;31129;44.810;10.334;2023-06-01T07:28:59;100905.84;;;22.77
45393;BMP280;31129;44.810;10.334;2023-06-01T07:31:25;100906.84;;;23.09
45393;BMP280;31129;44.810;10.334;2023-06-01T07:33:53;100903.00;;;23.28
45393;BMP280;31129;44.810;10.334;2023-06-01T07:36:23;100909.47;;;23.15
45393;BMP280;31129;44.810;10.334;2023-06-01T07:38:51;100905.41;;;23.08
45393;BMP280;31129;44.810;10.334;2023-06-01T07:41:17;100906.50;;;23.13
45393;BMP280;31129;44.810;10.334;2023-06-01T07:43:43;100910.59;;;23.12
45393;BMP280;31129;44.810;10.334;2023-06-01T07:46:08;100905.56;;;23.10
45393;BMP280;31129;44.810;10.334;2023-06-01T07:48:33;100903.19;;;23.22
45393;BMP280;31129;44.810;10.334;2023-06-01T07:51:05;100902.63;;;23.31
45393;BMP280;31129;44.810;10.334;2023-06-01T07:53:32;100908.41;;;23.41
45393;BMP280;31129;44.810;10.334;2023-06-01T07:55:57;100900.78;;;23.49
45393;BMP280;31129;44.810;10.334;2023-06-01T07:58:23;100895.94;;;23.27
45393;BMP280;31129;44.810;10.334;2023-06-01T08:00:48;100897.63;;;23.60
45393;BMP280;31129;44.810;10.334;2023-06-01T08:03:14;100885.53;;;23.80
45393;BMP280;31129;44.810;10.334;2023-06-01T08:05:40;100885.91;;;23.77
45393;BMP280;31129;44.810;10.334;2023-06-01T08:08:08;100888.31;;;23.80
45393;BMP280;31129;44.810;10.334;2023-06-01T08:10:34;100882.88;;;23.97
45393;BMP280;31129;44.810;10.334;2023-06-01T08:13:00;100883.06;;;24.07
45393;BMP280;31129;44.810;10.334;2023-06-01T08:15:26;100882.19;;;23.89
45393;BMP280;31129;44.810;10.334;2023-06-01T08:17:53;100887.38;;;23.93
45393;BMP280;31129;44.810;10.334;2023-06-01T08:20:19;100880.47;;;24.02
45393;BMP280;31129;44.810;10.334;2023-06-01T08:22:47;100883.25;;;24.09
45393;BMP280;31129;44.810;10.334;2023-06-01T08:25:12;100886.00;;;24.24
45393;BMP280;31129;44.810;10.334;2023-06-01T08:27:40;100875.75;;;24.27
45393;BMP280;31129;44.810;10.334;2023-06-01T08:30:08;100883.88;;;24.40
45393;BMP280;31129;44.810;10.334;2023-06-01T08:32:34;100885.69;;;24.53
45393;BMP280;31129;44.810;10.334;2023-06-01T08:35:02;100891.44;;;24.62
45393;BMP280;31129;44.810;10.334;2023-06-01T08:37:28;100880.56;;;24.74
45393;BMP280;31129;44.810;10.334;2023-06-01T08:39:54;100882.81;;;24.75
45393;BMP280;31129;44.810;10.334;2023-06-01T08:42:25;100877.88;;;24.91
45393;BMP280;31129;44.810;10.334;2023-06-01T08:44:57;100882.75;;;24.83
45393;BMP280;31129;44.810;10.334;2023-06-01T08:47:26;100878.31;;;24.80
45393;BMP280;31129;44.810;10.334;2023-06-01T08:49:52;100875.69;;;24.82
45393;BMP280;31129;44.810;10.334;2023-06-01T08:52:22;100867.41;;;24.99
45393;BMP280;31129;44.810;10.334;2023-06-01T08:54:48;100873.28;;;25.03
45393;BMP280;31129;44.810;10.334;2023-06-01T08:57:15;100868.00;;;25.15
45393;BMP280;31129;44.810;10.334;2023-06-01T08:59:41;100869.25;;;24.97
45393;BMP280;31129;44.810;10.334;2023-06-01T09:02:08;100861.56;;;24.80
45393;BMP280;31129;44.810;10.334;2023-06-01T09:04:33;100861.75;;;25.07
45393;BMP280;31129;44.810;10.334;2023-06-01T09:07:03;100865.50;;;25.02
45393;BMP280;31129;44.810;10.334;2023-06-01T09:09:29;100866.06;;;25.00
45393;BMP280;31129;44.810;10.334;2023-06-01T09:12:26;100867.88;;;25.30
45393;BMP280;31129;44.810;10.334;2023-06-01T09:17:29;100862.25;;;25.38
45393;BMP280;31129;44.810;10.334;2023-06-01T09:19:55;100862.13;;;25.28
45393;BMP280;31129;44.810;10.334;2023-06-01T09:22:21;100863.22;;;25.32
45393;BMP280;31129;44.810;10.334;2023-06-01T09:24:57;100865.66;;;25.28
45393;BMP280;31129;44.810;10.334;2023-06-01T09:27:23;100867.47;;;25.33
45393;BMP280;31129;44.810;10.334;2023-06-01T09:29:53;100857.28;;;25.28
45393;BMP280;31129;44.810;10.334;2023-06-01T09:32:19;100859.63;;;25.15
45393;BMP280;31129;44.810;10.334;2023-06-01T09:34:46;100858.19;;;24.81
45393;BMP280;31129;44.810;10.334;2023-06-01T09:37:12;100856.16;;;24.82
45393;BMP280;31129;44.810;10.334;2023-06-01T09:39:39;100855.97;;;24.80
45393;BMP280;31129;44.810;10.334;2023-06-01T09:42:05;100858.59;;;25.27
45393;BMP280;31129;44.810;10.334;2023-06-01T09:44:36;100848.38;;;25.05
45393;BMP280;31129;44.810;10.334;2023-06-01T09:47:07;100844.25;;;25.06
45393;BMP280;31129;44.810;10.334;2023-06-01T09:49:43;100843.97;;;24.95
45393;BMP280;31129;44.810;10.334;2023-06-01T09:52:10;100841.97;;;25.12
45393;BMP280;31129;44.810;10.334;2023-06-01T09:54:50;100834.53;;;25.49
45393;BMP280;31129;44.810;10.334;2023-06-01T09:57:26;100833.41;;;25.52
45393;BMP280;31129;44.810;10.334;2023-06-01T09:59:54;100826.81;;;25.74
45393;BMP280;31129;44.810;10.334;2023-06-01T10:02:21;100831.59;;;25.64
45393;BMP280;31129;44.810;10.334;2023-06-01T10:04:56;100837.88;;;25.72
45393;BMP280;31129;44.810;10.334;2023-06-01T10:07:25;100831.03;;;26.00
45393;BMP280;31129;44.810;10.334;2023-06-01T10:09:54;100819.88;;;26.10
45393;BMP280;31129;44.810;10.334;2023-06-01T10:12:20;100816.09;;;26.15
45393;BMP280;31129;44.810;10.334;2023-06-01T10:14:46;100819.91;;;25.93
45393;BMP280;31129;44.810;10.334;2023-06-01T10:17:13;100829.63;;;25.74
45393;BMP280;31129;44.810;10.334;2023-06-01T10:19:40;100829.16;;;25.86
45393;BMP280;31129;44.810;10.334;2023-06-01T10:22:06;100826.31;;;26.20
45393;BMP280;31129;44.810;10.334;2023-06-01T10:24:32;100812.00;;;26.43
45393;BMP280;31129;44.810;10.334;2023-06-01T10:29:39;100811.81;;;26.41
45393;BMP280;31129;44.810;10.334;2023-06-01T10:40:43;100810.53;;;26.24
45393;BMP280;31129;44.810;10.334;2023-06-01T10:43:49;100809.25;;;26.08
45393;BMP280;31129;44.810;10.334;2023-06-01T10:46:39;100809.22;;;26.43
45393;BMP280;31129;44.810;10.334;2023-06-01T10:49:06;100812.53;;;26.68
45393;BMP280;31129;44.810;10.334;2023-06-01T10:51:32;100816.47;;;26.55
45393;BMP280;31129;44.810;10.334;2023-06-01T10:54:34;100816.00;;;26.49
45393;BMP280;31129;44.810;10.334;2023-06-01T10:57:25;100805.31;;;26.65
45393;BMP280;31129;44.810;10.334;2023-06-01T11:02:58;100798.28;;;26.74
45393;BMP280;31129;44.810;10.334;2023-06-01T11:05:46;100803.63;;;26.98
45393;BMP280;31129;44.810;10.334;2023-06-01T11:13:17;100788.66;;;27.23
45393;BMP280;31129;44.810;10.334;2023-06-01T11:18:52;100789.25;;;27.40
45393;BMP280;31129;44.810;10.334;2023-06-01T11:21:37;100783.00;;;27.90
45393;BMP280;31129;44.810;10.334;2023-06-01T11:24:16;100778.91;;;27.81
45393;BMP280;31129;44.810;10.334;2023-06-01T11:26:43;100771.59;;;28.07
45393;BMP280;31129;44.810;10.334;2023-06-01T11:29:19;100778.44;;;27.85
45393;BMP280;31129;44.810;10.334;2023-06-01T11:31:55;100770.81;;;27.66
45393;BMP280;31129;44.810;10.334;2023-06-01T11:34:31;100781.72;;;27.33
45393;BMP280;31129;44.810;10.334;2023-06-01T11:36:57;100773.88;;;27.12
45393;BMP280;31129;44.810;10.334;2023-06-01T11:39:25;100778.31;;;27.25
45393;BMP280;31129;44.810;10.334;2023-06-01T11:41:52;100782.56;;;26.88
45393;BMP280;31129;44.810;10.334;2023-06-01T11:44:18;100778.00;;;27.11
45393;BMP280;31129;44.810;10.334;2023-06-01T11:46:55;100768.88;;;27.40
45393;BMP280;31129;44.810;10.334;2023-06-01T11:49:22;100765.75;;;27.74
45393;BMP280;31129;44.810;10.334;2023-06-01T11:51:48;100768.94;;;28.09
45393;BMP280;31129;44.810;10.334;2023-06-01T11:54:13;100758.94;;;27.77
45393;BMP280;31129;44.810;10.334;2023-06-01T11:56:39;100758.59;;;28.11
45393;BMP280;31129;44.810;10.334;2023-06-01T11:59:06;100756.53;;;28.43
45393;BMP280;31129;44.810;10.334;2023-06-01T12:01:35;100758.69;;;28.54
45393;BMP280;31129;44.810;10.334;2023-06-01T12:04:04;100745.91;;;28.84
45393;BMP280;31129;44.810;10.334;2023-06-01T12:06:30;100749.97;;;29.02
45393;BMP280;31129;44.810;10.334;2023-06-01T12:08:56;100745.41;;;28.14
45393;BMP280;31129;44.810;10.334;2023-06-01T12:11:24;100740.94;;;28.30
45393;BMP280;31129;44.810;10.334;2023-06-01T12:13:53;100738.88;;;28.52
45393;BMP280;31129;44.810;10.334;2023-06-01T12:16:20;100732.16;;;28.36
45393;BMP280;31129;44.810;10.334;2023-06-01T12:18:46;100733.38;;;28.54
45393;BMP280;31129;44.810;10.334;2023-06-01T12:21:12;100721.47;;;28.44
45393;BMP280;31129;44.810;10.334;2023-06-01T12:23:38;100725.03;;;28.13
45393;BMP280;31129;44.810;10.334;2023-06-01T12:26:04;100715.41;;;28.69
45393;BMP280;31129;44.810;10.334;2023-06-01T12:28:50;100716.16;;;28.69
45393;BMP280;31129;44.810;10.334;2023-06-01T12:31:20;100711.03;;;28.98
45393;BMP280;31129;44.810;10.334;2023-06-01T12:33:46;100710.91;;;29.18
45393;BMP280;31129;44.810;10.334;2023-06-01T12:36:33;100704.56;;;29.17
45393;BMP280;31129;44.810;10.334;2023-06-01T12:39:00;100692.91;;;28.47
45393;BMP280;31129;44.810;10.334;2023-06-01T12:41:27;100695.75;;;28.17
45393;BMP280;31129;44.810;10.334;2023-06-01T12:43:54;100687.22;;;28.05
45393;BMP280;31129;44.810;10.334;2023-06-01T12:46:25;100681.81;;;27.97
45393;BMP280;31129;44.810;10.334;2023-06-01T12:48:51;100684.47;;;28.26
45393;BMP280;31129;44.810;10.334;2023-06-01T12:51:18;100675.72;;;28.53
45393;BMP280;31129;44.810;10.334;2023-06-01T12:53:43;100676.41;;;27.80
45393;BMP280;31129;44.810;10.334;2023-06-01T12:56:10;100658.13;;;27.70
45393;BMP280;31129;44.810;10.334;2023-06-01T12:58:36;100668.91;;;27.73
45393;BMP280;31129;44.810;10.334;2023-06-01T13:01:02;100660.31;;;28.42
45393;BMP280;31129;44.810;10.334;2023-06-01T13:03:28;100669.66;;;28.56
45393;BMP280;31129;44.810;10.334;2023-06-01T13:05:55;100661.50;;;29.15
45393;BMP280;31129;44.810;10.334;2023-06-01T13:08:20;100666.81;;;29.43
45393;BMP280;31129;44.810;10.334;2023-06-01T13:10:47;100652.91;;;29.80
45393;BMP280;31129;44.810;10.334;2023-06-01T13:13:16;100661.63;;;29.96
45393;BMP280;31129;44.810;10.334;2023-06-01T13:15:42;100653.13;;;30.19
45393;BMP280;31129;44.810;10.334;2023-06-01T13:18:08;100649.75;;;30.46
45393;BMP280;31129;44.810;10.334;2023-06-01T13:20:35;100645.91;;;30.16
45393;BMP280;31129;44.810;10.334;2023-06-01T13:23:01;100645.78;;;30.14
45393;BMP280;31129;44.810;10.334;2023-06-01T13:25:27;100646.53;;;29.56
45393;BMP280;31129;44.810;10.334;2023-06-01T13:27:52;100634.63;;;30.16
45393;BMP280;31129;44.810;10.334;2023-06-01T13:30:18;100637.56;;;30.18
45393;BMP280;31129;44.810;10.334;2023-06-01T13:32:44;100634.94;;;30.34
45393;BMP280;31129;44.810;10.334;2023-06-01T13:35:10;100624.53;;;30.73
45393;BMP280;31129;44.810;10.334;2023-06-01T13:37:37;100628.22;;;31.14
45393;BMP280;31129;44.810;10.334;2023-06-01T13:40:03;100616.88;;;31.40
45393;BMP280;31129;44.810;10.334;2023-06-01T13:42:31;100619.94;;;31.44
45393;BMP280;31129;44.810;10.334;2023-06-01T13:44:58;100607.72;;;31.00
45393;BMP280;31129;44.810;10.334;2023-06-01T13:47:23;100607.28;;;30.42
45393;BMP280;31129;44.810;10.334;2023-06-01T13:49:49;100606.75;;;30.45
45393;BMP280;31129;44.810;10.334;2023-06-01T13:52:14;100600.69;;;30.26
45393;BMP280;31129;44.810;10.334;2023-06-01T13:54:40;100600.66;;;29.66
45393;BMP280;31129;44.810;10.334;2023-06-01T13:57:06;100603.81;;;29.60
45393;BMP280;31129;44.810;10.334;2023-06-01T13:59:32;100599.78;;;30.35
45393;BMP280;31129;44.810;10.334;2023-06-01T14:02:00;100592.06;;;31.11
45393;BMP280;31129;44.810;10.334;2023-06-01T14:04:26;100583.13;;;30.89
45393;BMP280;31129;44.810;10.334;2023-06-01T14:06:51;100589.78;;;30.82
45393;BMP280;31129;44.810;10.334;2023-06-01T14:09:20;100594.63;;;31.32
45393;BMP280;31129;44.810;10.334;2023-06-01T14:11:46;100584.56;;;31.70
45393;BMP280;31129;44.810;10.334;2023-06-01T14:14:11;100574.97;;;30.95
45393;BMP280;31129;44.810;10.334;2023-06-01T14:16:36;100579.00;;;31.86
45393;BMP280;31129;44.810;10.334;2023-06-01T14:19:02;100576.03;;;32.11
45393;BMP280;31129;44.810;10.334;2023-06-01T14:21:28;100570.38;;;32.11
45393;BMP280;31129;44.810;10.334;2023-06-01T14:23:55;100581.19;;;32.59
45393;BMP280;31129;44.810;10.334;2023-06-01T14:26:21;100565.97;;;32.51